createdAt,value
2022-09-17T00:01:31.106Z,6.50
2022-09-17T00:04:04.109Z,6.50
2022-09-17T00:06:35.679Z,6.40
2022-09-17T00:09:06.025Z,6.40
2022-09-17T00:11:38.485Z,6.40
2022-09-17T00:14:09.973Z,6.30
2022-09-17T00:16:43.319Z,6.40
2022-09-17T00:19:19.445Z,6.40
2022-09-17T00:21:47.351Z,6.40
2022-09-17T00:24:18.409Z,6.30
2022-09-17T00:26:46.540Z,6.30
2022-09-17T00:29:13.602Z,6.30
2022-09-17T00:31:40.904Z,6.30
2022-09-17T00:34:08.534Z,6.20
2022-09-17T00:36:38.717Z,6.10
2022-09-17T00:39:09.951Z,6.00
2022-09-17T00:41:39.070Z,6.00
2022-09-17T00:44:55.841Z,6.00
2022-09-17T00:47:33.190Z,6.00
2022-09-17T00:50:28.821Z,6.00
2022-09-17T00:53:20.550Z,6.10
2022-09-17T00:56:29.767Z,6.20
2022-09-17T00:58:57.729Z,6.20
2022-09-17T01:01:24.828Z,6.30
2022-09-17T01:03:51.795Z,6.50
2022-09-17T01:06:34.535Z,6.60
2022-09-17T01:09:45.042Z,6.70
2022-09-17T01:13:06.178Z,6.80
2022-09-17T01:16:00.459Z,6.90
2022-09-17T01:18:47.498Z,7.00
2022-09-17T01:21:39.922Z,7.00
2022-09-17T01:24:37.215Z,7.00
2022-09-17T01:27:45.621Z,7.10
2022-09-17T01:30:54.734Z,7.10
2022-09-17T01:34:11.035Z,7.20
2022-09-17T01:37:27.729Z,7.20
2022-09-17T01:40:24.349Z,7.20
2022-09-17T01:43:41.079Z,7.20
2022-09-17T01:46:40.650Z,7.10
2022-09-17T01:49:12.391Z,7.00
2022-09-17T01:51:46.976Z,6.90
2022-09-17T01:54:42.455Z,6.90
2022-09-17T01:57:25.839Z,6.90
2022-09-17T02:00:05.995Z,7.00
2022-09-17T02:02:57.759Z,7.00
2022-09-17T02:05:51.544Z,7.00
2022-09-17T02:08:23.635Z,7.00
2022-09-17T02:11:16.947Z,7.00
2022-09-17T02:14:21.367Z,6.90
2022-09-17T02:17:00.463Z,6.90
2022-09-17T02:19:38.516Z,6.90
2022-09-17T02:22:44.944Z,6.80
2022-09-17T02:25:24.432Z,7.00
2022-09-17T02:28:31.100Z,7.00
2022-09-17T02:30:58.088Z,7.10
2022-09-17T02:33:28.199Z,7.20
2022-09-17T02:35:55.332Z,7.20
2022-09-17T02:38:28.992Z,7.10
2022-09-17T02:42:12.281Z,7.10
2022-09-17T02:45:48.999Z,7.10
2022-09-17T02:49:11.295Z,7.20
2022-09-17T02:52:16.850Z,7.10
2022-09-17T02:55:28.828Z,7.10
2022-09-17T02:58:21.278Z,7.10
2022-09-17T03:00:49.138Z,7.20
2022-09-17T03:03:44.174Z,7.20
2022-09-17T03:06:12.268Z,7.20
2022-09-17T03:08:42.536Z,7.20
2022-09-17T03:11:12.822Z,7.20
2022-09-17T03:13:40.077Z,7.30
2022-09-17T03:16:07.856Z,7.30
2022-09-17T03:18:34.998Z,7.30
2022-09-17T03:21:01.945Z,7.30
2022-09-17T03:23:28.945Z,7.30
2022-09-17T03:25:55.893Z,7.30
2022-09-17T03:28:22.992Z,7.40
2022-09-17T03:30:49.865Z,7.40
2022-09-17T03:33:16.925Z,7.40
2022-09-17T03:35:45.793Z,7.40
2022-09-17T03:38:14.158Z,7.50
2022-09-17T03:40:41.468Z,7.50
2022-09-17T03:43:09.092Z,7.50
2022-09-17T03:45:36.045Z,7.50
2022-09-17T03:48:03.441Z,7.50
2022-09-17T03:50:30.329Z,7.50
2022-09-17T03:52:57.273Z,7.60
2022-09-17T03:55:24.138Z,7.60
2022-09-17T03:57:51.247Z,7.60
2022-09-17T04:00:18.291Z,7.60
2022-09-17T04:02:45.227Z,7.50
2022-09-17T04:05:12.358Z,7.60
2022-09-17T04:07:41.095Z,7.60
2022-09-17T04:10:09.297Z,7.60
2022-09-17T04:12:36.710Z,7.50
2022-09-17T04:15:05.003Z,7.60
2022-09-17T04:17:32.410Z,7.60
2022-09-17T04:19:59.370Z,7.50
2022-09-17T04:22:26.911Z,7.50
2022-09-17T04:24:53.775Z,7.60
2022-09-17T04:27:20.742Z,7.50
2022-09-17T04:29:47.591Z,7.60
2022-09-17T04:32:14.567Z,7.60
2022-09-17T04:34:41.545Z,7.60
2022-09-17T04:37:08.711Z,7.60
2022-09-17T04:39:35.658Z,7.60
2022-09-17T04:42:02.525Z,7.60
2022-09-17T04:44:29.394Z,7.60
2022-09-17T04:46:56.321Z,7.70
2022-09-17T04:49:23.279Z,7.60
2022-09-17T04:51:50.200Z,7.70
2022-09-17T04:54:17.450Z,7.70
2022-09-17T04:56:44.420Z,7.70
2022-09-17T04:59:11.474Z,7.70
2022-09-17T05:01:38.336Z,7.80
2022-09-17T05:04:05.279Z,7.80
2022-09-17T05:06:32.171Z,7.80
2022-09-17T05:08:59.238Z,7.80
2022-09-17T05:11:26.206Z,7.80
2022-09-17T05:13:53.221Z,7.80
2022-09-17T05:16:20.314Z,7.80
2022-09-17T05:18:49.396Z,7.80
2022-09-17T05:21:16.339Z,7.90
2022-09-17T05:23:43.279Z,7.90
2022-09-17T05:26:10.404Z,7.90
2022-09-17T05:28:37.223Z,7.90
2022-09-17T05:31:04.241Z,7.90
2022-09-17T05:33:31.660Z,7.90
2022-09-17T05:35:59.740Z,8.00
2022-09-17T05:38:26.811Z,8.00
2022-09-17T05:40:53.799Z,8.00
2022-09-17T05:43:20.816Z,8.00
2022-09-17T05:45:48.175Z,8.00
2022-09-17T05:48:15.790Z,8.00
2022-09-17T05:50:42.936Z,7.90
2022-09-17T05:53:15.211Z,7.90
2022-09-17T05:55:42.056Z,7.90
2022-09-17T05:58:17.000Z,7.90
2022-09-17T06:00:46.476Z,8.00
2022-09-17T06:03:18.214Z,8.00
2022-09-17T06:05:59.310Z,8.00
2022-09-17T06:08:29.028Z,7.90
2022-09-17T06:11:01.509Z,7.80
2022-09-17T06:13:29.109Z,7.90
2022-09-17T06:15:56.015Z,7.90
2022-09-17T06:18:23.060Z,7.80
2022-09-17T06:21:03.601Z,7.70
2022-09-17T06:23:37.729Z,7.70
2022-09-17T06:26:06.585Z,7.70
2022-09-17T06:28:36.760Z,7.80
2022-09-17T06:31:10.124Z,7.90
2022-09-17T06:33:37.517Z,7.80
2022-09-17T06:36:13.716Z,7.80
2022-09-17T06:38:42.288Z,7.80
2022-09-17T06:41:09.409Z,7.70
2022-09-17T06:43:36.363Z,7.70
2022-09-17T06:46:06.157Z,7.60
2022-09-17T06:48:36.093Z,7.60
2022-09-17T06:51:10.745Z,7.50
2022-09-17T06:53:39.190Z,7.50
2022-09-17T06:56:09.441Z,7.50
2022-09-17T06:58:37.749Z,7.40
2022-09-17T07:01:05.827Z,7.40
2022-09-17T07:03:33.786Z,7.40
2022-09-17T07:06:00.785Z,7.40
2022-09-17T07:08:27.778Z,7.40
2022-09-17T07:10:58.811Z,7.50
2022-09-17T07:13:26.561Z,7.50
2022-09-17T07:16:01.811Z,7.50
2022-09-17T07:18:29.792Z,7.50
2022-09-17T07:21:06.630Z,7.50
2022-09-17T07:23:37.383Z,7.40
2022-09-17T07:26:14.174Z,7.40
2022-09-17T07:28:43.857Z,7.40
2022-09-17T07:31:16.381Z,7.40
2022-09-17T07:33:45.358Z,7.40
2022-09-17T07:36:17.815Z,7.40
2022-09-17T07:38:45.725Z,7.40
2022-09-17T07:41:17.314Z,7.40
2022-09-17T07:43:45.221Z,7.40
2022-09-17T07:46:20.568Z,7.40
2022-09-17T07:48:49.429Z,7.50
2022-09-17T07:51:29.722Z,7.50
2022-09-17T07:53:59.864Z,7.50
2022-09-17T07:56:28.465Z,7.60
2022-09-17T07:58:56.141Z,7.60
2022-09-17T08:04:00.919Z,7.60
2022-09-17T08:06:28.154Z,7.60
2022-09-17T08:08:57.806Z,7.60
2022-09-17T08:11:51.653Z,7.70
2022-09-17T08:14:16.082Z,7.80
2022-09-17T08:16:45.474Z,7.80
2022-09-17T08:19:12.381Z,7.80
2022-09-17T08:21:39.259Z,7.80
2022-09-17T08:24:06.837Z,7.80
2022-09-17T08:26:33.719Z,7.80
2022-09-17T08:29:00.725Z,7.80
2022-09-17T08:31:30.007Z,7.70
2022-09-17T08:33:57.727Z,7.70
2022-09-17T08:36:26.351Z,7.80
2022-09-17T08:38:56.231Z,7.80
2022-09-17T08:42:12.072Z,7.80
2022-09-17T08:44:50.730Z,7.80
2022-09-17T08:47:38.989Z,8.00
2022-09-17T08:50:19.090Z,7.90
2022-09-17T08:53:33.480Z,7.90
2022-09-17T08:56:16.310Z,7.90
2022-09-17T08:59:21.027Z,7.90
2022-09-17T09:02:19.544Z,7.90
2022-09-17T09:05:19.588Z,8.00
2022-09-17T09:08:05.439Z,8.00
2022-09-17T09:11:05.196Z,8.00
2022-09-17T09:13:48.948Z,8.00
2022-09-17T09:16:33.919Z,8.00
2022-09-17T09:19:14.432Z,8.00
2022-09-17T09:21:58.856Z,8.10
2022-09-17T09:24:40.769Z,8.20
2022-09-17T09:27:28.816Z,8.20
2022-09-17T09:30:16.808Z,8.20
2022-09-17T09:33:11.349Z,8.20
2022-09-17T09:35:44.091Z,8.30
2022-09-17T09:38:37.888Z,8.40
2022-09-17T09:41:45.670Z,8.40
2022-09-17T09:44:17.910Z,8.70
2022-09-17T09:47:05.654Z,9.00
2022-09-17T09:50:03.292Z,9.20
2022-09-17T09:53:12.330Z,9.80
2022-09-17T09:56:10.717Z,10.90
2022-09-17T09:58:41.443Z,12.40
2022-09-17T10:01:22.844Z,13.00
2022-09-17T10:03:53.941Z,13.20
2022-09-17T10:06:21.714Z,12.20
2022-09-17T10:08:57.386Z,11.70
2022-09-17T10:11:34.659Z,11.50
2022-09-17T10:14:26.758Z,11.70
2022-09-17T10:17:29.090Z,11.10
2022-09-17T10:20:10.402Z,11.00
2022-09-17T10:22:40.445Z,11.10
2022-09-17T10:25:31.426Z,11.20
2022-09-17T10:28:05.597Z,11.60
2022-09-17T10:30:32.905Z,11.30
2022-09-17T10:33:24.739Z,11.70
2022-09-17T10:36:16.089Z,11.90
2022-09-17T10:38:46.314Z,12.70
2022-09-17T10:41:21.584Z,13.70
2022-09-17T10:43:50.993Z,14.50
2022-09-17T10:46:33.619Z,15.10
2022-09-17T10:49:42.405Z,14.50
2022-09-17T10:52:31.270Z,14.50
2022-09-17T10:55:28.210Z,14.30
2022-09-17T10:58:07.193Z,13.90
2022-09-17T11:01:07.427Z,13.50
2022-09-17T11:04:15.922Z,13.10
2022-09-17T11:07:12.359Z,13.70
2022-09-17T11:10:15.295Z,16.00
2022-09-17T11:13:02.204Z,15.00
2022-09-17T11:16:13.599Z,13.80
2022-09-17T11:19:19.411Z,13.30
2022-09-17T11:22:03.826Z,13.30
2022-09-17T11:25:09.322Z,13.30
2022-09-17T11:28:13.563Z,12.20
2022-09-17T11:31:28.328Z,11.60
2022-09-17T11:34:50.915Z,13.00
2022-09-17T11:37:31.066Z,14.70
2022-09-17T11:40:29.683Z,15.80
2022-09-17T11:43:14.615Z,17.80
2022-09-17T11:46:04.980Z,17.20
2022-09-17T11:49:29.395Z,18.10
2022-09-17T11:52:19.572Z,18.80
2022-09-17T11:55:19.092Z,21.10
2022-09-17T11:57:51.833Z,22.10
2022-09-17T12:00:23.931Z,22.10
2022-09-17T12:03:20.629Z,23.10
2022-09-17T12:05:59.664Z,22.40
2022-09-17T12:09:15.589Z,21.20
2022-09-17T12:12:07.575Z,21.40
2022-09-17T12:14:53.924Z,17.10
2022-09-17T12:17:36.769Z,15.60
2022-09-17T12:20:20.939Z,14.20
2022-09-17T12:22:51.667Z,13.80
2022-09-17T12:25:18.652Z,13.20
2022-09-17T12:28:43.928Z,15.30
2022-09-17T12:32:14.528Z,17.50
2022-09-17T12:35:32.744Z,20.40
2022-09-17T12:38:52.063Z,18.10
2022-09-17T12:41:41.873Z,15.40
2022-09-17T12:45:15.672Z,14.80
2022-09-17T12:48:41.993Z,14.70
2022-09-17T12:51:46.156Z,14.90
2022-09-17T12:54:39.836Z,14.50
2022-09-17T12:58:16.134Z,14.40
2022-09-17T13:01:07.594Z,13.70
2022-09-17T13:04:43.674Z,12.40
2022-09-17T13:08:01.974Z,11.40
2022-09-17T13:11:25.990Z,11.00
2022-09-17T13:14:43.749Z,12.60
2022-09-17T13:18:12.342Z,13.30
2022-09-17T13:21:15.222Z,12.80
2022-09-17T13:23:49.541Z,13.00
2022-09-17T13:26:33.007Z,13.20
2022-09-17T13:28:59.986Z,12.90
2022-09-17T13:31:38.928Z,12.10
2022-09-17T13:34:17.953Z,11.70
2022-09-17T13:36:55.485Z,11.70
2022-09-17T13:39:46.253Z,11.70
2022-09-17T13:42:31.270Z,11.70
2022-09-17T13:45:16.165Z,12.00
2022-09-17T13:48:10.757Z,12.30
2022-09-17T13:50:44.837Z,12.80
2022-09-17T13:53:14.870Z,13.30
2022-09-17T13:56:00.939Z,13.50
2022-09-17T13:58:35.661Z,13.50
2022-09-17T14:01:07.684Z,13.30
2022-09-17T14:03:41.665Z,12.90
2022-09-17T14:06:08.556Z,12.10
2022-09-17T14:08:43.920Z,10.40
2022-09-17T14:11:22.672Z,9.10
2022-09-17T14:13:56.685Z,8.60
2022-09-17T14:16:33.660Z,8.30
2022-09-17T14:19:27.771Z,8.00
2022-09-17T14:22:26.602Z,7.80
2022-09-17T14:24:55.462Z,7.80
2022-09-17T14:27:58.251Z,8.10
2022-09-17T14:30:34.161Z,8.70
2022-09-17T14:33:00.937Z,9.70
2022-09-17T14:35:50.227Z,9.90
2022-09-17T14:38:45.581Z,9.70
2022-09-17T14:41:12.330Z,9.50
2022-09-17T14:44:12.431Z,9.60
2022-09-17T14:47:06.763Z,11.20
2022-09-17T14:49:40.947Z,14.60
2022-09-17T14:52:31.610Z,15.80
2022-09-17T14:55:25.159Z,17.00
2022-09-17T14:57:56.831Z,17.10
2022-09-17T15:00:32.755Z,16.10
2022-09-17T15:03:00.059Z,14.10
2022-09-17T15:05:50.427Z,12.50
2022-09-17T15:08:24.168Z,11.20
2022-09-17T15:11:03.815Z,10.40
2022-09-17T15:13:40.271Z,11.10
2022-09-17T15:16:30.655Z,13.40
2022-09-17T15:19:03.691Z,15.40
2022-09-17T15:21:41.620Z,16.70
2022-09-17T15:24:42.742Z,17.60
2022-09-17T15:27:45.541Z,18.00
2022-09-17T15:30:22.637Z,18.30
2022-09-17T15:32:58.920Z,18.50
2022-09-17T15:35:32.992Z,18.30
2022-09-17T15:38:23.121Z,18.20
2022-09-17T15:40:53.175Z,18.00
2022-09-17T15:43:33.577Z,18.00
2022-09-17T15:46:27.164Z,18.10
2022-09-17T15:48:58.764Z,17.50
2022-09-17T15:51:33.388Z,16.80
2022-09-17T15:54:05.616Z,15.80
2022-09-17T15:56:42.028Z,14.50
2022-09-17T15:59:44.432Z,13.60
2022-09-17T16:02:29.750Z,13.30
2022-09-17T16:05:25.360Z,14.20
2022-09-17T16:07:52.486Z,15.50
2022-09-17T16:10:19.948Z,16.10
2022-09-17T16:12:50.094Z,15.50
2022-09-17T16:15:17.409Z,14.50
2022-09-17T16:17:48.216Z,13.50
2022-09-17T16:20:25.396Z,12.90
2022-09-17T16:22:53.669Z,13.20
2022-09-17T16:25:28.661Z,12.70
2022-09-17T16:28:03.981Z,12.30
2022-09-17T16:30:30.963Z,12.40
2022-09-17T16:32:59.129Z,12.70
2022-09-17T16:35:26.750Z,13.00
2022-09-17T16:37:56.592Z,13.60
2022-09-17T16:40:29.608Z,14.10
2022-09-17T16:43:01.985Z,14.30
2022-09-17T16:45:31.073Z,14.10
2022-09-17T16:47:58.521Z,13.70
2022-09-17T16:50:25.861Z,13.00
2022-09-17T16:52:53.949Z,12.40
2022-09-17T16:55:21.809Z,11.70
2022-09-17T16:57:49.173Z,11.10
2022-09-17T17:00:21.053Z,10.60
2022-09-17T17:02:57.440Z,10.20
2022-09-17T17:05:27.246Z,10.00
2022-09-17T17:07:55.404Z,9.80
2022-09-17T17:10:26.354Z,9.70
2022-09-17T17:12:53.225Z,9.60
2022-09-17T17:15:22.318Z,9.50
2022-09-17T17:17:49.827Z,9.40
2022-09-17T17:20:17.066Z,9.30
2022-09-17T17:22:45.240Z,9.30
2022-09-17T17:25:14.730Z,9.40
2022-09-17T17:27:41.850Z,9.40
2022-09-17T17:30:16.620Z,9.50
2022-09-17T17:32:48.663Z,9.30
2022-09-17T17:35:15.882Z,9.20
2022-09-17T17:37:43.576Z,9.10
2022-09-17T17:40:10.880Z,9.00
2022-09-17T17:42:40.594Z,8.80
2022-09-17T17:45:08.770Z,8.70
2022-09-17T17:47:36.338Z,8.60
2022-09-17T17:50:04.210Z,8.50
2022-09-17T17:52:31.767Z,8.30
2022-09-17T17:54:58.666Z,7.90
2022-09-17T17:57:25.570Z,7.70
2022-09-17T17:59:52.416Z,7.50
2022-09-17T18:02:19.412Z,7.40
2022-09-17T18:04:46.467Z,7.30
2022-09-17T18:07:13.467Z,7.30
2022-09-17T18:09:40.423Z,7.30
2022-09-17T18:12:07.786Z,7.20
2022-09-17T18:14:34.859Z,7.20
2022-09-17T18:17:02.051Z,7.10
2022-09-17T18:19:28.907Z,7.00
2022-09-17T18:21:55.787Z,7.00
2022-09-17T18:24:22.747Z,6.90
2022-09-17T18:26:49.742Z,6.80
2022-09-17T18:29:16.640Z,6.80
2022-09-17T18:31:45.031Z,6.80
2022-09-17T18:34:16.577Z,6.80
2022-09-17T18:36:50.804Z,6.70
2022-09-17T18:42:07.641Z,6.80
2022-09-17T18:44:34.490Z,6.80
2022-09-17T18:47:01.646Z,6.80
2022-09-17T18:49:28.767Z,6.80
2022-09-17T18:51:55.652Z,6.70
2022-09-17T18:54:22.543Z,6.80
2022-09-17T18:56:49.379Z,6.80
2022-09-17T18:59:16.296Z,6.90
2022-09-17T19:01:43.149Z,7.00
2022-09-17T19:04:11.117Z,7.00
2022-09-17T19:06:38.031Z,7.10
2022-09-17T19:09:06.128Z,7.10
2022-09-17T19:11:36.224Z,7.10
2022-09-17T19:14:03.421Z,7.10
2022-09-17T19:16:30.451Z,7.10
2022-09-17T19:18:57.384Z,7.00
2022-09-17T19:21:24.200Z,7.00
2022-09-17T19:23:52.868Z,7.10
2022-09-17T19:26:27.161Z,7.10
2022-09-17T19:28:57.824Z,7.10
2022-09-17T19:31:27.067Z,7.10
2022-09-17T19:33:54.333Z,7.00
2022-09-17T19:36:21.285Z,6.90
2022-09-17T19:38:49.197Z,6.80
2022-09-17T19:41:25.097Z,6.70
2022-09-17T19:43:54.176Z,6.60
2022-09-17T19:46:26.833Z,6.50
2022-09-17T19:48:57.408Z,6.50
2022-09-17T19:51:29.724Z,6.50
2022-09-17T19:53:57.135Z,6.50
2022-09-17T19:56:27.890Z,6.60
2022-09-17T19:58:55.050Z,6.60
2022-09-17T20:01:22.170Z,6.60
2022-09-17T20:03:49.185Z,6.60
2022-09-17T20:06:20.589Z,6.60
2022-09-17T20:08:54.302Z,6.50
2022-09-17T20:11:25.305Z,6.50
2022-09-17T20:14:06.517Z,6.40
2022-09-17T20:16:37.421Z,6.40
2022-09-17T20:19:07.773Z,6.40
2022-09-17T20:21:35.011Z,6.40
2022-09-17T20:24:02.457Z,6.30
2022-09-17T20:26:29.412Z,6.30
2022-09-17T20:28:56.566Z,6.30
2022-09-17T20:31:29.138Z,6.30
2022-09-17T20:34:01.755Z,6.40
2022-09-17T20:36:33.908Z,6.30
2022-09-17T20:41:47.912Z,6.20
2022-09-17T20:44:14.893Z,6.10
2022-09-17T20:46:41.890Z,6.10
2022-09-17T20:49:09.220Z,6.00
2022-09-17T20:51:36.062Z,6.00
2022-09-17T20:54:03.985Z,5.90
2022-09-17T20:56:34.437Z,5.90
2022-09-17T20:59:14.124Z,5.90
2022-09-17T21:01:45.360Z,5.90
2022-09-17T21:04:19.163Z,5.90
2022-09-17T21:06:50.748Z,5.90
2022-09-17T21:09:17.627Z,5.90
2022-09-17T21:11:48.083Z,5.90
2022-09-17T21:14:17.267Z,5.80
2022-09-17T21:16:45.762Z,5.80
2022-09-17T21:19:15.916Z,5.80
2022-09-17T21:21:43.044Z,5.80
2022-09-17T21:24:10.212Z,5.80
2022-09-17T21:26:37.611Z,5.70
2022-09-17T21:29:04.930Z,5.70
2022-09-17T21:31:36.724Z,5.80
2022-09-17T21:34:09.685Z,5.80
2022-09-17T21:36:40.919Z,5.80
2022-09-17T21:39:17.816Z,5.80
2022-09-17T21:41:47.918Z,5.80
2022-09-17T21:44:15.803Z,5.80
2022-09-17T21:46:43.281Z,5.70
2022-09-17T21:49:11.284Z,5.80
2022-09-17T21:51:42.414Z,5.80
2022-09-17T21:54:15.195Z,5.80
2022-09-17T21:56:43.591Z,5.90
2022-09-17T21:59:15.143Z,5.80
2022-09-17T22:01:49.849Z,5.80
2022-09-17T22:04:21.985Z,5.70
2022-09-17T22:06:50.253Z,5.70
2022-09-17T22:09:25.299Z,5.80
2022-09-17T22:11:53.607Z,5.80
2022-09-17T22:14:24.536Z,5.80
2022-09-17T22:16:56.797Z,5.80
2022-09-17T22:19:25.887Z,5.80
2022-09-17T22:21:56.043Z,5.80
2022-09-17T22:24:24.704Z,5.90
2022-09-17T22:26:57.794Z,6.10
2022-09-17T22:29:31.330Z,6.20
2022-09-17T22:31:58.460Z,6.40
2022-09-17T22:34:26.325Z,6.50
2022-09-17T22:36:53.177Z,6.50
2022-09-17T22:39:23.270Z,6.60
2022-09-17T22:41:50.953Z,6.60
2022-09-17T22:44:20.603Z,6.60
2022-09-17T22:46:51.496Z,6.50
2022-09-17T22:49:20.237Z,6.50
2022-09-17T22:51:47.641Z,6.50
2022-09-17T22:54:18.432Z,6.50
2022-09-17T22:56:47.828Z,6.50
2022-09-17T22:59:15.201Z,6.50
2022-09-17T23:01:42.328Z,6.40
2022-09-17T23:04:09.704Z,6.50
2022-09-17T23:06:41.891Z,6.50
2022-09-17T23:09:08.876Z,6.40
2022-09-17T23:11:39.163Z,6.40
2022-09-17T23:14:12.480Z,6.50
2022-09-17T23:16:47.692Z,6.50
2022-09-17T23:19:18.265Z,6.50
2022-09-17T23:21:46.142Z,6.40
2022-09-17T23:24:20.837Z,6.40
2022-09-17T23:26:49.933Z,6.30
2022-09-17T23:29:18.321Z,6.30
2022-09-17T23:31:45.689Z,6.30
2022-09-17T23:34:12.685Z,6.30
2022-09-17T23:36:40.264Z,6.30
2022-09-17T23:39:11.353Z,6.30
2022-09-17T23:41:43.102Z,6.20
2022-09-17T23:44:15.379Z,6.20
2022-09-17T23:46:45.177Z,6.20
2022-09-17T23:49:14.728Z,6.20
2022-09-17T23:51:42.701Z,6.20
2022-09-17T23:54:10.098Z,6.20
2022-09-17T23:56:37.629Z,6.10
2022-09-17T23:59:04.951Z,6.10
